createdAt,value
2018-09-13T00:00:32.664Z,82.21
2018-09-13T00:03:04.992Z,82.28
2018-09-13T00:05:37.258Z,82.48
2018-09-13T00:08:09.488Z,83.03
2018-09-13T00:10:41.801Z,83.10
2018-09-13T00:13:14.090Z,81.53
2018-09-13T00:15:46.381Z,82.13
2018-09-13T00:18:18.633Z,81.06
2018-09-13T00:20:51.176Z,81.43
2018-09-13T00:23:23.448Z,81.26
2018-09-13T00:25:55.864Z,81.20
2018-09-13T00:28:28.132Z,81.55
2018-09-13T00:31:00.423Z,81.35
2018-09-13T00:33:32.672Z,80.77
2018-09-13T00:36:05.038Z,81.90
2018-09-13T00:38:37.364Z,81.80
2018-09-13T00:41:09.626Z,82.05
2018-09-13T00:43:41.873Z,82.25
2018-09-13T00:46:14.737Z,81.29
2018-09-13T00:48:47.197Z,81.72
2018-09-13T00:51:19.468Z,81.57
2018-09-13T00:53:51.716Z,81.02
2018-09-13T00:56:23.986Z,81.10
2018-09-13T00:58:56.351Z,81.00
2018-09-13T01:01:28.622Z,80.95
2018-09-13T01:04:00.896Z,80.94
2018-09-13T01:06:33.247Z,81.71
2018-09-13T01:09:07.548Z,80.86
2018-09-13T01:11:39.800Z,80.94
2018-09-13T01:14:12.113Z,81.09
2018-09-13T01:16:44.450Z,81.58
2018-09-13T01:19:16.785Z,81.53
2018-09-13T01:21:49.064Z,81.75
2018-09-13T01:24:21.364Z,81.04
2018-09-13T01:26:53.600Z,81.44
2018-09-13T01:29:25.914Z,81.40
2018-09-13T01:31:58.233Z,81.29
2018-09-13T01:34:30.499Z,81.18
2018-09-13T01:37:02.792Z,81.14
2018-09-13T01:39:35.044Z,81.49
2018-09-13T01:42:07.336Z,80.70
2018-09-13T01:44:39.640Z,80.84
2018-09-13T01:47:11.962Z,81.57
2018-09-13T01:49:44.242Z,80.62
2018-09-13T01:52:16.476Z,80.96
2018-09-13T01:54:48.778Z,80.73
2018-09-13T01:57:21.032Z,80.66
2018-09-13T01:59:53.361Z,80.77
2018-09-13T02:02:25.593Z,81.61
2018-09-13T02:04:57.900Z,81.28
2018-09-13T02:07:30.261Z,81.09
2018-09-13T02:10:02.564Z,80.61
2018-09-13T02:12:34.851Z,81.53
2018-09-13T02:15:07.189Z,80.60
2018-09-13T02:17:39.459Z,81.06
2018-09-13T02:20:11.757Z,80.98
2018-09-13T02:22:43.999Z,81.33
2018-09-13T02:25:16.287Z,82.57
2018-09-13T02:27:48.533Z,82.52
2018-09-13T02:30:20.804Z,82.38
2018-09-13T02:32:53.095Z,82.56
2018-09-13T02:35:25.348Z,82.96
2018-09-13T02:37:57.570Z,83.01
2018-09-13T02:40:29.825Z,83.08
2018-09-13T02:43:02.084Z,82.15
2018-09-13T02:45:34.349Z,82.12
2018-09-13T02:48:06.635Z,82.66
2018-09-13T02:50:38.899Z,82.23
2018-09-13T02:53:11.172Z,82.69
2018-09-13T02:55:43.415Z,82.39
2018-09-13T02:58:15.728Z,82.26
2018-09-13T03:00:48.031Z,81.82
2018-09-13T03:03:20.292Z,81.89
2018-09-13T03:05:52.567Z,81.83
2018-09-13T03:08:24.897Z,81.83
2018-09-13T03:10:57.104Z,81.50
2018-09-13T03:13:29.423Z,82.64
2018-09-13T03:16:01.711Z,82.12
2018-09-13T03:18:34.063Z,82.20
2018-09-13T03:21:06.328Z,82.64
2018-09-13T03:23:38.681Z,82.83
2018-09-13T03:26:10.913Z,82.58
2018-09-13T03:28:43.249Z,82.54
2018-09-13T03:31:15.513Z,81.98
2018-09-13T03:33:47.908Z,81.47
2018-09-13T03:36:20.177Z,81.64
2018-09-13T03:38:52.469Z,81.67
2018-09-13T03:41:24.752Z,80.97
2018-09-13T03:43:57.006Z,80.67
2018-09-13T03:46:29.257Z,80.90
2018-09-13T03:49:01.604Z,80.79
2018-09-13T03:51:33.866Z,80.75
2018-09-13T03:54:06.172Z,80.59
2018-09-13T03:56:38.447Z,81.48
2018-09-13T03:59:10.840Z,81.22
2018-09-13T04:01:43.142Z,81.59
2018-09-13T04:04:15.502Z,81.38
2018-09-13T04:06:47.777Z,80.92
2018-09-13T04:09:20.145Z,79.85
2018-09-13T04:11:52.412Z,79.44
2018-09-13T04:14:24.760Z,80.09
2018-09-13T04:16:57.008Z,80.55
2018-09-13T04:19:34.122Z,81.18
2018-09-13T04:22:06.457Z,80.89
2018-09-13T04:24:38.725Z,80.33
2018-09-13T04:27:11.224Z,80.68
2018-09-13T04:29:43.502Z,80.74
2018-09-13T04:32:15.809Z,80.69
2018-09-13T04:34:48.148Z,81.13
2018-09-13T04:37:20.437Z,80.67
2018-09-13T04:39:53.277Z,80.51
2018-09-13T04:42:25.621Z,80.57
2018-09-13T04:44:58.841Z,80.76
2018-09-13T04:47:31.124Z,81.33
2018-09-13T04:50:03.594Z,81.12
2018-09-13T04:52:35.927Z,80.79
2018-09-13T04:55:08.197Z,80.80
2018-09-13T04:57:40.493Z,81.11
2018-09-13T05:00:12.830Z,80.71
2018-09-13T05:02:45.078Z,81.06
2018-09-13T05:05:17.361Z,80.52
2018-09-13T05:07:49.644Z,79.31
2018-09-13T05:10:21.886Z,79.15
2018-09-13T05:12:54.200Z,79.48
2018-09-13T05:15:26.456Z,79.50
2018-09-13T05:17:58.813Z,79.08
2018-09-13T05:20:31.073Z,78.85
2018-09-13T05:23:03.348Z,79.12
2018-09-13T05:25:35.644Z,78.78
2018-09-13T05:28:07.994Z,79.19
2018-09-13T05:30:40.277Z,79.07
2018-09-13T05:33:12.509Z,79.01
2018-09-13T05:35:44.768Z,79.42
2018-09-13T05:38:17.082Z,78.84
2018-09-13T05:40:49.395Z,78.64
2018-09-13T05:43:21.788Z,78.55
2018-09-13T05:45:54.048Z,78.97
2018-09-13T05:48:26.339Z,79.09
2018-09-13T05:50:58.664Z,78.03
2018-09-13T05:53:30.897Z,78.23
2018-09-13T05:56:03.252Z,77.44
2018-09-13T05:58:35.498Z,78.11
2018-09-13T06:01:07.789Z,78.72
2018-09-13T06:03:40.098Z,79.23
2018-09-13T06:06:12.431Z,78.92
2018-09-13T06:08:44.722Z,78.46
2018-09-13T06:11:17.048Z,78.86
2018-09-13T06:13:49.864Z,78.80
2018-09-13T06:16:22.153Z,78.19
2018-09-13T06:18:54.420Z,79.42
2018-09-13T06:21:26.715Z,79.97
2018-09-13T06:23:59.001Z,79.90
2018-09-13T06:26:31.336Z,79.10
2018-09-13T06:29:03.657Z,78.16
2018-09-13T06:31:35.920Z,78.08
2018-09-13T06:34:08.230Z,77.87
2018-09-13T06:36:40.517Z,78.45
2018-09-13T06:39:12.791Z,78.71
2018-09-13T06:41:45.073Z,78.50
2018-09-13T06:44:17.333Z,77.91
2018-09-13T06:46:49.613Z,77.92
2018-09-13T06:49:21.904Z,78.47
2018-09-13T06:51:54.203Z,78.19
2018-09-13T06:54:26.456Z,77.59
2018-09-13T06:56:58.717Z,77.20
2018-09-13T06:59:30.982Z,77.74
2018-09-13T07:02:03.277Z,77.16
2018-09-13T07:04:35.581Z,77.52
2018-09-13T07:07:08.127Z,77.09
2018-09-13T07:09:40.389Z,77.92
2018-09-13T07:12:12.648Z,77.95
2018-09-13T07:14:44.938Z,77.69
2018-09-13T07:17:17.256Z,77.57
2018-09-13T07:19:49.573Z,76.45
2018-09-13T07:22:21.873Z,76.77
2018-09-13T07:24:54.120Z,76.56
2018-09-13T07:27:26.428Z,76.48
2018-09-13T07:29:58.701Z,76.11
2018-09-13T07:32:31.062Z,75.59
2018-09-13T07:35:03.344Z,75.26
2018-09-13T07:37:35.713Z,75.25
2018-09-13T07:40:08.036Z,74.43
2018-09-13T07:42:40.475Z,74.12
2018-09-13T07:45:12.737Z,74.01
2018-09-13T07:47:45.109Z,72.95
2018-09-13T07:50:17.484Z,71.62
2018-09-13T07:52:49.862Z,71.20
2018-09-13T07:55:22.205Z,71.47
2018-09-13T07:57:54.531Z,71.21
2018-09-13T08:00:26.865Z,71.17
2018-09-13T08:02:59.191Z,70.77
2018-09-13T08:05:31.531Z,70.00
2018-09-13T08:08:03.908Z,69.58
2018-09-13T08:10:36.261Z,69.43
2018-09-13T08:13:08.606Z,68.98
2018-09-13T08:15:41.000Z,68.80
2018-09-13T08:18:13.255Z,69.53
2018-09-13T08:20:45.734Z,69.58
2018-09-13T08:23:18.113Z,70.07
2018-09-13T08:25:50.430Z,70.32
2018-09-13T08:28:22.760Z,69.82
2018-09-13T08:30:55.072Z,69.77
2018-09-13T08:33:27.491Z,69.75
2018-09-13T08:35:59.734Z,69.09
2018-09-13T08:38:32.109Z,69.32
2018-09-13T08:41:04.503Z,69.32
2018-09-13T08:43:36.800Z,69.10
2018-09-13T08:46:09.116Z,68.14
2018-09-13T08:48:41.440Z,67.84
2018-09-13T08:51:13.709Z,67.52
2018-09-13T08:53:45.982Z,67.94
2018-09-13T08:56:18.461Z,67.83
2018-09-13T08:58:50.740Z,67.37
2018-09-13T09:01:23.041Z,67.23
2018-09-13T09:03:55.396Z,67.57
2018-09-13T09:06:27.724Z,67.17
2018-09-13T09:09:00.078Z,66.16
2018-09-13T09:11:32.429Z,66.17
2018-09-13T09:14:04.753Z,67.41
2018-09-13T09:16:37.083Z,66.08
2018-09-13T09:19:09.410Z,66.27
2018-09-13T09:21:42.115Z,65.98
2018-09-13T09:24:14.456Z,64.69
2018-09-13T09:26:46.892Z,64.95
2018-09-13T09:29:19.218Z,63.52
2018-09-13T09:31:51.555Z,63.64
2018-09-13T09:34:23.900Z,63.65
2018-09-13T09:36:56.180Z,63.41
2018-09-13T09:39:28.463Z,63.20
2018-09-13T09:42:00.748Z,62.75
2018-09-13T09:44:33.024Z,61.56
2018-09-13T09:47:05.360Z,61.11
2018-09-13T09:49:37.615Z,60.09
2018-09-13T09:52:09.961Z,60.57
2018-09-13T09:54:42.220Z,60.45
2018-09-13T09:57:14.824Z,61.08
2018-09-13T09:59:47.174Z,61.92
2018-09-13T10:02:21.881Z,61.04
2018-09-13T10:04:54.193Z,59.91
2018-09-13T10:07:26.574Z,60.34
2018-09-13T10:09:58.979Z,60.17
2018-09-13T10:12:31.293Z,60.32
2018-09-13T10:15:09.214Z,59.25
2018-09-13T10:17:47.164Z,57.69
2018-09-13T10:20:25.145Z,58.50
2018-09-13T10:23:03.282Z,57.92
2018-09-13T10:25:41.121Z,57.86
2018-09-13T10:28:19.100Z,58.17
2018-09-13T10:30:56.964Z,58.59
2018-09-13T10:33:34.990Z,59.21
2018-09-13T10:36:12.934Z,57.70
2018-09-13T10:38:51.020Z,58.54
2018-09-13T10:41:29.088Z,58.33
2018-09-13T10:44:07.022Z,57.89
2018-09-13T10:46:39.352Z,57.64
2018-09-13T10:49:17.269Z,57.15
2018-09-13T10:51:55.279Z,56.42
2018-09-13T10:54:33.096Z,53.73
2018-09-13T10:57:10.992Z,53.52
2018-09-13T10:59:44.533Z,53.75
2018-09-13T11:02:16.837Z,53.51
2018-09-13T11:04:49.188Z,53.35
2018-09-13T11:07:21.517Z,53.67
2018-09-13T11:09:53.872Z,51.65
2018-09-13T11:12:33.212Z,51.78
2018-09-13T11:15:15.184Z,51.34
2018-09-13T11:17:47.532Z,52.35
2018-09-13T11:20:19.817Z,51.82
2018-09-13T11:22:53.457Z,52.47
2018-09-13T11:25:25.809Z,52.71
2018-09-13T11:27:58.087Z,51.78
2018-09-13T11:30:30.526Z,51.87
2018-09-13T11:33:02.822Z,51.71
2018-09-13T11:35:35.142Z,52.45
2018-09-13T11:38:07.489Z,52.38
2018-09-13T11:40:39.898Z,53.57
2018-09-13T11:43:12.214Z,53.17
2018-09-13T11:45:44.535Z,53.51
2018-09-13T11:48:16.878Z,54.00
2018-09-13T11:50:49.203Z,54.25
2018-09-13T11:53:21.525Z,53.39
2018-09-13T11:55:53.843Z,53.74
2018-09-13T11:58:26.192Z,53.47
2018-09-13T12:00:58.492Z,53.00
2018-09-13T12:03:30.842Z,53.47
2018-09-13T12:06:03.239Z,53.12
2018-09-13T12:08:35.701Z,52.87
2018-09-13T12:11:07.997Z,51.93
2018-09-13T12:13:40.318Z,51.46
2018-09-13T12:16:12.701Z,51.84
2018-09-13T12:18:45.111Z,51.10
2018-09-13T12:21:17.474Z,50.36
2018-09-13T12:23:49.939Z,51.16
2018-09-13T12:26:22.401Z,50.07
2018-09-13T12:28:54.805Z,50.82
2018-09-13T12:31:27.128Z,51.22
2018-09-13T12:33:59.480Z,50.42
2018-09-13T12:36:31.823Z,49.45
2018-09-13T12:39:07.425Z,48.98
2018-09-13T12:41:40.417Z,49.96
2018-09-13T12:44:12.791Z,49.42
2018-09-13T12:46:45.111Z,49.79
2018-09-13T12:49:17.788Z,49.70
2018-09-13T12:51:50.141Z,50.16
2018-09-13T12:54:22.450Z,49.43
2018-09-13T12:56:54.895Z,49.47
2018-09-13T12:59:27.151Z,47.42
2018-09-13T13:01:59.487Z,48.30
2018-09-13T13:04:31.793Z,47.92
2018-09-13T13:09:51.981Z,48.10
2018-09-13T13:12:24.306Z,48.45
2018-09-13T13:14:56.636Z,47.73
2018-09-13T13:17:28.996Z,47.24
2018-09-13T13:20:01.285Z,46.94
2018-09-13T13:22:33.613Z,47.08
2018-09-13T13:25:05.944Z,47.96
2018-09-13T13:27:38.326Z,47.03
2018-09-13T13:30:10.550Z,48.50
2018-09-13T13:32:42.878Z,47.81
2018-09-13T13:35:15.168Z,47.45
2018-09-13T13:37:47.473Z,46.71
2018-09-13T13:40:20.036Z,47.34
2018-09-13T13:42:52.463Z,47.48
2018-09-13T13:45:24.812Z,46.89
2018-09-13T13:47:57.221Z,46.43
2018-09-13T13:50:29.498Z,45.67
2018-09-13T13:53:01.846Z,45.59
2018-09-13T13:55:34.129Z,45.73
2018-09-13T13:58:06.535Z,45.74
2018-09-13T14:00:38.808Z,45.10
2018-09-13T14:03:11.111Z,45.72
2018-09-13T14:05:43.448Z,44.94
2018-09-13T14:08:15.804Z,45.42
2018-09-13T14:10:48.246Z,45.60
2018-09-13T14:13:20.734Z,45.67
2018-09-13T14:15:53.094Z,44.69
2018-09-13T14:18:25.416Z,45.21
2018-09-13T14:20:57.782Z,44.40
2018-09-13T14:23:30.106Z,45.34
2018-09-13T14:26:02.507Z,43.95
2018-09-13T14:28:34.832Z,43.79
2018-09-13T14:31:07.124Z,43.35
2018-09-13T14:33:39.450Z,44.38
2018-09-13T14:36:11.748Z,43.59
2018-09-13T14:38:44.153Z,44.11
2018-09-13T14:41:16.512Z,45.16
2018-09-13T14:43:48.771Z,44.60
2018-09-13T14:46:21.121Z,45.40
2018-09-13T14:48:53.453Z,46.04
2018-09-13T14:51:25.756Z,46.44
2018-09-13T14:53:58.060Z,46.17
2018-09-13T14:56:30.382Z,46.45
2018-09-13T14:59:02.666Z,47.38
2018-09-13T15:01:34.968Z,47.05
2018-09-13T15:04:07.268Z,47.57
2018-09-13T15:06:39.578Z,47.55
2018-09-13T15:09:12.808Z,47.01
2018-09-13T15:11:45.157Z,47.44
2018-09-13T15:14:17.488Z,47.73
2018-09-13T15:16:49.844Z,46.27
2018-09-13T15:19:22.185Z,47.14
2018-09-13T15:21:54.532Z,47.52
2018-09-13T15:24:27.010Z,47.93
2018-09-13T15:26:59.233Z,46.84
2018-09-13T15:29:31.533Z,46.72
2018-09-13T15:32:03.890Z,47.88
2018-09-13T15:34:36.204Z,47.96
2018-09-13T15:37:08.667Z,47.90
2018-09-13T15:39:41.067Z,46.38
2018-09-13T15:42:13.467Z,45.20
2018-09-13T15:44:45.828Z,46.01
2018-09-13T15:47:18.153Z,46.49
2018-09-13T15:49:50.561Z,46.91
2018-09-13T15:52:22.842Z,47.38
2018-09-13T15:54:55.158Z,47.92
2018-09-13T15:57:27.509Z,48.13
2018-09-13T15:59:59.803Z,48.81
2018-09-13T16:02:32.185Z,49.09
2018-09-13T16:05:04.906Z,48.50
2018-09-13T16:07:37.160Z,49.54
2018-09-13T16:10:09.458Z,50.32
2018-09-13T16:12:41.783Z,50.17
2018-09-13T16:15:14.133Z,51.14
2018-09-13T16:17:46.449Z,51.03
2018-09-13T16:20:18.834Z,52.01
2018-09-13T16:22:51.129Z,51.59
2018-09-13T16:25:23.517Z,53.19
2018-09-13T16:27:55.864Z,53.66
2018-09-13T16:30:28.174Z,53.26
2018-09-13T16:33:00.454Z,54.34
2018-09-13T16:35:32.872Z,53.80
2018-09-13T16:38:10.876Z,53.95
2018-09-13T16:40:48.926Z,54.82
2018-09-13T16:43:26.866Z,55.02
2018-09-13T16:45:59.276Z,55.03
2018-09-13T16:48:37.360Z,55.36
2018-09-13T16:51:09.771Z,55.24
2018-09-13T16:53:42.124Z,55.17
2018-09-13T16:56:14.468Z,55.32
2018-09-13T16:58:46.898Z,56.22
2018-09-13T17:01:19.232Z,55.93
2018-09-13T17:03:51.558Z,59.49
2018-09-13T17:06:23.906Z,60.38
2018-09-13T17:08:56.254Z,62.33
2018-09-13T17:11:28.563Z,62.67
2018-09-13T17:14:00.884Z,63.68
2018-09-13T17:16:33.229Z,66.29
2018-09-13T17:19:05.553Z,65.44
2018-09-13T17:21:37.924Z,67.75
2018-09-13T17:24:10.244Z,69.07
2018-09-13T17:26:49.353Z,69.67
2018-09-13T17:29:21.639Z,70.23
2018-09-13T17:31:53.953Z,70.35
2018-09-13T17:34:26.306Z,71.54
2018-09-13T17:36:58.674Z,71.73
2018-09-13T17:39:37.677Z,73.23
2018-09-13T17:42:10.058Z,72.78
2018-09-13T17:44:42.408Z,72.83
2018-09-13T17:47:14.904Z,73.32
2018-09-13T17:49:47.235Z,72.51
2018-09-13T17:52:19.627Z,73.12
2018-09-13T17:54:51.953Z,74.20
2018-09-13T17:57:24.505Z,72.92
2018-09-13T17:59:56.852Z,74.94
2018-09-13T18:02:29.283Z,75.92
2018-09-13T18:05:01.618Z,75.20
2018-09-13T18:07:33.974Z,75.56
2018-09-13T18:10:06.353Z,76.21
2018-09-13T18:12:39.081Z,75.77
2018-09-13T18:15:11.507Z,76.79
2018-09-13T18:17:43.823Z,76.54
2018-09-13T18:20:16.208Z,76.70
2018-09-13T18:22:48.597Z,76.54
2018-09-13T18:25:21.075Z,77.95
2018-09-13T18:27:53.445Z,76.97
2018-09-13T18:30:25.964Z,77.50
2018-09-13T18:32:58.358Z,77.84
2018-09-13T18:35:30.645Z,79.52
2018-09-13T18:38:03.013Z,79.31
2018-09-13T18:40:35.340Z,79.31
2018-09-13T18:43:07.869Z,78.60
2018-09-13T18:45:40.276Z,78.15
2018-09-13T18:48:12.714Z,79.39
2018-09-13T18:50:45.045Z,79.50
2018-09-13T18:53:17.407Z,79.61
2018-09-13T18:55:49.810Z,79.17
2018-09-13T18:58:22.318Z,79.29
2018-09-13T19:00:54.704Z,79.65
2018-09-13T19:03:27.045Z,80.27
2018-09-13T19:05:59.426Z,80.96
2018-09-13T19:08:31.810Z,79.94
2018-09-13T19:11:04.261Z,81.13
2018-09-13T19:13:36.795Z,81.27
2018-09-13T19:16:09.214Z,81.69
2018-09-13T19:18:41.576Z,81.89
2018-09-13T19:21:13.970Z,81.85
2018-09-13T19:23:46.315Z,81.86
2018-09-13T19:26:18.759Z,82.04
2018-09-13T19:28:51.242Z,81.71
2018-09-13T19:31:23.649Z,82.12
2018-09-13T19:33:55.952Z,81.02
2018-09-13T19:36:28.346Z,82.25
2018-09-13T19:39:00.669Z,82.72
2018-09-13T19:41:33.242Z,82.15
2018-09-13T19:44:05.659Z,82.40
2018-09-13T19:46:38.062Z,82.88
2018-09-13T19:49:10.449Z,83.22
2018-09-13T19:51:42.954Z,83.34
2018-09-13T19:54:15.298Z,83.17
2018-09-13T19:56:47.715Z,84.24
2018-09-13T19:59:20.090Z,83.62
2018-09-13T20:01:52.579Z,83.85
2018-09-13T20:04:25.026Z,84.20
2018-09-13T20:06:57.352Z,83.80
2018-09-13T20:09:29.682Z,84.70
2018-09-13T20:12:02.127Z,84.81
2018-09-13T20:14:34.457Z,85.38
2018-09-13T20:17:06.854Z,84.96
2018-09-13T20:19:39.330Z,85.00
2018-09-13T20:22:12.594Z,85.15
2018-09-13T20:24:45.117Z,86.84
2018-09-13T20:27:17.405Z,86.67
2018-09-13T20:29:49.758Z,85.98
2018-09-13T20:32:22.169Z,85.72
2018-09-13T20:34:54.563Z,86.01
2018-09-13T20:37:29.244Z,85.97
2018-09-13T20:40:02.147Z,86.29
2018-09-13T20:42:34.670Z,86.36
2018-09-13T20:45:07.078Z,86.36
2018-09-13T20:47:39.627Z,87.81
2018-09-13T20:50:11.991Z,87.08
2018-09-13T20:52:44.670Z,87.23
2018-09-13T20:55:17.020Z,88.05
2018-09-13T20:57:49.442Z,87.45
2018-09-13T21:00:21.779Z,86.92
2018-09-13T21:02:54.157Z,87.47
2018-09-13T21:05:26.641Z,87.09
2018-09-13T21:07:58.985Z,87.84
2018-09-13T21:10:31.344Z,87.14
2018-09-13T21:13:03.736Z,87.79
2018-09-13T21:15:36.069Z,87.35
2018-09-13T21:18:08.466Z,87.26
2018-09-13T21:20:40.866Z,86.88
2018-09-13T21:23:13.248Z,87.44
2018-09-13T21:25:45.660Z,87.86
2018-09-13T21:28:18.023Z,87.74
2018-09-13T21:30:50.428Z,86.96
2018-09-13T21:33:22.709Z,87.96
2018-09-13T21:35:55.114Z,87.04
2018-09-13T21:38:27.604Z,87.53
2018-09-13T21:40:59.973Z,87.63
2018-09-13T21:43:32.313Z,87.60
2018-09-13T21:46:04.726Z,88.27
2018-09-13T21:48:37.077Z,87.62
2018-09-13T21:51:09.502Z,87.38
2018-09-13T21:53:41.862Z,87.44
2018-09-13T21:56:14.296Z,88.12
2018-09-13T21:58:46.628Z,88.43
2018-09-13T22:01:18.981Z,88.31
2018-09-13T22:03:51.392Z,87.49
2018-09-13T22:06:23.821Z,87.56
2018-09-13T22:08:56.108Z,87.67
2018-09-13T22:11:28.470Z,87.30
2018-09-13T22:14:00.956Z,87.39
2018-09-13T22:16:33.457Z,87.60
2018-09-13T22:19:06.137Z,86.97
2018-09-13T22:21:38.492Z,87.72
2018-09-13T22:24:10.805Z,86.92
2018-09-13T22:26:43.113Z,87.17
2018-09-13T22:29:15.440Z,87.10
2018-09-13T22:31:47.740Z,87.17
2018-09-13T22:34:20.051Z,86.63
2018-09-13T22:36:52.536Z,86.78
2018-09-13T22:39:24.874Z,86.98
2018-09-13T22:41:57.220Z,86.93
2018-09-13T22:44:34.065Z,86.06
2018-09-13T22:47:06.454Z,86.66
2018-09-13T22:49:39.104Z,86.22
2018-09-13T22:52:11.424Z,86.18
2018-09-13T22:54:43.789Z,86.75
2018-09-13T22:57:16.057Z,86.89
2018-09-13T22:59:48.384Z,87.02
2018-09-13T23:02:20.684Z,86.93
2018-09-13T23:04:53.047Z,86.01
2018-09-13T23:07:25.417Z,87.16
2018-09-13T23:09:57.808Z,87.04
2018-09-13T23:12:30.076Z,87.03
2018-09-13T23:15:02.428Z,86.55
2018-09-13T23:17:34.867Z,87.46
2018-09-13T23:20:07.156Z,86.96
2018-09-13T23:22:39.487Z,87.52
2018-09-13T23:25:11.831Z,87.34
2018-09-13T23:27:44.116Z,86.26
2018-09-13T23:30:16.501Z,86.44
2018-09-13T23:32:49.009Z,86.22
2018-09-13T23:35:21.348Z,86.81
2018-09-13T23:37:53.646Z,85.86
2018-09-13T23:40:26.083Z,86.67
2018-09-13T23:42:58.566Z,86.94
2018-09-13T23:45:32.056Z,86.65
2018-09-13T23:48:04.346Z,86.43
2018-09-13T23:50:36.652Z,86.94
2018-09-13T23:53:08.947Z,87.43
2018-09-13T23:55:41.373Z,87.39
2018-09-13T23:58:13.616Z,86.83
